Antigo, Wisconsin
Current Conditions -  °F | °C
As of 2:35 PM on Tuesday 27 Jan 2015 (Local Time) from KAIG Reporting Station
Light Snow Light Snow  
Wind Chill: -5°   Ceiling: 1800
Heat Index: -5°   Visibility: 5mi
Dew Point: -7°   Wind: 3mph
Humidity: 84%   Direction: 220°SW
Pressure: 30.17"   Gusts: NA
Location:  45.14°N, 89.15°W
Report Text: KAIG 272035Z AUTO 22003KT 5SM -SN OVC018 M05/M07 A3017 RMK AO2 T10511074
Loading
Personal Weather Stations






























Interactive Weather Map New forecast layout! Learn more

10-Day Weather Forecast

Advertisements
Track Severe Weather on mobile